Time;durP1;ratioP1;P1;durP2;ratioP2;P2;SDS_P1;SDS_P2;PMS_P1;PMS_P2;Temp;Humidity;BMP_temperature;BMP_pressure;BME280_temperature;BME280_humidity;BME280_pressure;Samples;Min_cycle;Max_cycle;Signal;HPM_P1;HPM_P2
2023/08/25 00:00:45;;;;;;;29.98;17.45;;;20.30;99.90;;;;;;5018507;28;20033;-76
2023/08/25 00:03:11;;;;;;;27.15;17.45;;;20.30;99.90;;;;;;5020815;28;20037;-76
2023/08/25 00:05:37;;;;;;;28.92;17.02;;;20.40;99.90;;;;;;5020945;28;20021;-78
2023/08/25 00:08:03;;;;;;;24.50;16.25;;;20.40;99.90;;;;;;5020956;28;20044;-72
2023/08/25 00:10:29;;;;;;;27.52;16.70;;;20.40;99.90;;;;;;5019098;28;21864;-73
2023/08/25 00:12:55;;;;;;;21.58;15.30;;;20.50;99.90;;;;;;5020986;28;20030;-75
2023/08/25 00:15:20;;;;;;;22.45;16.08;;;20.50;99.90;;;;;;5019994;28;20029;-73
2023/08/25 00:17:46;;;;;;;23.95;16.48;;;20.50;99.90;;;;;;5019914;28;20026;-75
2023/08/25 00:20:12;;;;;;;21.80;15.77;;;20.60;99.90;;;;;;5022768;28;20049;-73
2023/08/25 00:22:41;;;;;;;29.17;16.63;;;20.60;99.90;;;;;;5023577;28;20034;-79
2023/08/25 00:25:07;;;;;;;26.70;16.55;;;20.60;99.90;;;;;;5038861;28;20029;-74
2023/08/25 00:27:33;;;;;;;25.67;15.82;;;20.60;99.90;;;;;;5022943;28;20033;-77
2023/08/25 00:29:59;;;;;;;20.73;15.65;;;20.60;99.90;;;;;;5024170;28;20029;-73
2023/08/25 00:32:24;;;;;;;22.95;15.43;;;20.60;99.90;;;;;;5022788;28;20055;-77
2023/08/25 00:34:50;;;;;;;21.10;15.38;;;20.60;99.90;;;;;;5022362;28;20064;-76
2023/08/25 00:37:15;;;;;;;24.60;15.32;;;20.60;99.90;;;;;;5023800;28;20036;-75
2023/08/25 00:39:41;;;;;;;24.00;15.57;;;20.60;99.90;;;;;;5023925;28;20029;-74
2023/08/25 00:42:07;;;;;;;23.00;15.55;;;20.50;99.90;;;;;;5022659;28;20495;-73
2023/08/25 00:44:32;;;;;;;28.05;16.10;;;20.50;99.90;;;;;;5022785;28;20077;-75
2023/08/25 00:46:58;;;;;;;26.45;16.30;;;20.50;99.90;;;;;;5023842;28;20071;-74
2023/08/25 00:49:25;;;;;;;24.90;15.88;;;20.40;99.90;;;;;;5024048;28;20022;-77
2023/08/25 00:51:52;;;;;;;30.05;17.25;;;20.40;99.90;;;;;;5023995;28;20025;-74
2023/08/25 00:54:23;;;;;;;23.40;16.23;;;20.40;99.90;;;;;;5023405;28;20026;-74
2023/08/25 00:56:50;;;;;;;30.48;14.70;;;20.40;99.90;;;;;;5023650;28;20036;-76
2023/08/25 00:59:16;;;;;;;24.67;16.00;;;20.40;99.90;;;;;;5023751;28;20124;-73
2023/08/25 01:01:45;;;;;;;29.80;17.05;;;20.40;99.90;;;;;;5021689;28;20057;-72
2023/08/25 01:04:11;;;;;;;24.63;15.95;;;20.40;99.90;;;;;;5023503;28;20093;-73
2023/08/25 01:06:38;;;;;;;23.30;15.65;;;20.30;99.90;;;;;;5022899;28;20021;-75
2023/08/25 01:09:04;;;;;;;23.15;16.05;;;20.30;99.90;;;;;;5022862;28;20552;-73
2023/08/25 01:11:48;;;;;;;22.75;15.57;;;20.30;99.90;;;;;;5021462;28;20065;-75
2023/08/25 01:14:26;;;;;;;23.10;15.50;;;20.30;99.90;;;;;;5022668;28;20025;-75
2023/08/25 01:16:51;;;;;;;25.98;16.02;;;20.20;99.90;;;;;;5023341;28;20386;-77
2023/08/25 01:19:50;;;;;;;26.88;16.10;;;20.20;99.90;;;;;;5023384;28;20036;-74
2023/08/25 01:22:21;;;;;;;24.10;16.25;;;20.20;99.90;;;;;;5021401;28;20038;-74
2023/08/25 01:24:51;;;;;;;28.35;17.02;;;20.20;99.90;;;;;;5021773;28;20394;-72
2023/08/25 01:27:17;;;;;;;25.83;16.33;;;20.20;99.90;;;;;;5021653;28;20067;-76
2023/08/25 01:29:46;;;;;;;26.67;17.33;;;20.20;99.90;;;;;;5020222;28;21146;-77
2023/08/25 01:32:11;;;;;;;28.48;16.73;;;20.10;99.90;;;;;;5022472;28;20026;-74
2023/08/25 01:34:37;;;;;;;29.85;16.95;;;20.20;99.90;;;;;;5022782;28;20084;-75
2023/08/25 01:37:06;;;;;;;27.65;16.85;;;20.10;99.90;;;;;;5022904;28;20470;-75
2023/08/25 01:39:34;;;;;;;26.35;16.45;;;20.10;99.90;;;;;;5029323;28;20056;-75
2023/08/25 01:42:05;;;;;;;26.85;17.83;;;20.10;99.90;;;;;;5020934;28;20030;-73
2023/08/25 01:44:33;;;;;;;27.52;17.65;;;20.10;99.90;;;;;;5022965;28;20060;-72
2023/08/25 01:47:06;;;;;;;27.40;17.38;;;20.10;99.90;;;;;;5022968;28;20463;-75
2023/08/25 01:49:32;;;;;;;28.95;17.17;;;20.00;99.90;;;;;;5021095;28;20044;-76
2023/08/25 01:51:59;;;;;;;29.17;19.00;;;20.10;99.90;;;;;;5022859;28;20025;-74
2023/08/25 01:54:25;;;;;;;28.42;18.08;;;20.00;99.90;;;;;;5021345;28;20018;-74
2023/08/25 01:56:50;;;;;;;26.17;18.73;;;20.00;99.90;;;;;;5022501;28;20065;-76
2023/08/25 01:59:16;;;;;;;30.33;18.63;;;20.00;99.90;;;;;;5022722;28;20026;-77
2023/08/25 02:01:42;;;;;;;26.70;17.52;;;20.00;99.90;;;;;;5022523;28;20371;-72
2023/08/25 02:04:07;;;;;;;26.67;18.27;;;20.00;99.90;;;;;;5020827;28;20046;-74
2023/08/25 02:06:33;;;;;;;29.95;19.13;;;19.90;99.90;;;;;;5022594;28;20026;-74
2023/08/25 02:08:59;;;;;;;27.27;19.05;;;19.90;99.90;;;;;;5020866;28;20118;-78
2023/08/25 02:11:24;;;;;;;28.63;19.92;;;19.90;99.90;;;;;;5020022;28;20025;-75
2023/08/25 02:13:50;;;;;;;30.73;19.38;;;19.90;99.90;;;;;;5021379;28;20037;-75
2023/08/25 02:16:16;;;;;;;30.08;18.90;;;19.80;99.90;;;;;;5020968;28;20509;-78
2023/08/25 02:18:41;;;;;;;29.50;19.23;;;19.80;99.90;;;;;;5022383;28;20044;-75
2023/08/25 02:21:07;;;;;;;29.27;19.25;;;19.80;99.90;;;;;;5020893;28;20030;-77
2023/08/25 02:23:32;;;;;;;28.38;18.90;;;19.80;99.90;;;;;;5020585;28;20026;-79
2023/08/25 02:25:58;;;;;;;29.10;17.27;;;19.80;99.90;;;;;;5022108;28;20108;-75
2023/08/25 02:28:24;;;;;;;31.92;19.65;;;19.70;99.90;;;;;;5021021;28;20053;-74
2023/08/25 02:30:49;;;;;;;30.38;19.45;;;19.70;99.90;;;;;;5020069;28;20025;-75
2023/08/25 02:33:15;;;;;;;26.95;16.92;;;19.70;99.90;;;;;;5020384;28;20102;-76
2023/08/25 02:35:41;;;;;;;30.95;19.23;;;19.70;99.90;;;;;;5021718;28;20033;-74
2023/08/25 02:38:10;;;;;;;30.58;19.40;;;19.70;99.90;;;;;;5021763;28;20030;-76
2023/08/25 02:40:37;;;;;;;29.20;19.05;;;19.70;99.90;;;;;;5021675;28;20053;-78
2023/08/25 02:43:04;;;;;;;29.63;19.42;;;19.60;99.90;;;;;;5021031;28;20034;-78
2023/08/25 02:45:31;;;;;;;33.42;19.60;;;19.70;99.90;;;;;;5020037;28;20857;-76
2023/08/25 02:47:57;;;;;;;30.15;19.75;;;19.70;99.90;;;;;;5021402;28;20089;-74
2023/08/25 02:50:24;;;;;;;31.65;19.77;;;19.60;99.90;;;;;;5020805;28;20056;-76
2023/08/25 02:52:50;;;;;;;31.48;21.17;;;19.60;99.90;;;;;;5021722;28;20024;-75
2023/08/25 02:55:19;;;;;;;34.17;21.45;;;19.60;99.90;;;;;;5020563;28;20034;-80
2023/08/25 02:57:45;;;;;;;35.83;20.95;;;19.50;99.90;;;;;;5020580;28;20018;-75
2023/08/25 03:00:16;;;;;;;35.67;22.05;;;19.50;99.90;;;;;;5019935;28;20022;-75
2023/08/25 03:02:42;;;;;;;34.63;22.02;;;19.50;99.90;;;;;;5021215;28;20487;-76
2023/08/25 03:05:11;;;;;;;34.03;21.85;;;19.50;99.90;;;;;;5020208;28;20097;-75
2023/08/25 03:07:36;;;;;;;34.70;22.35;;;19.50;99.90;;;;;;5019873;28;20053;-76
2023/08/25 03:10:02;;;;;;;34.88;22.20;;;19.50;99.90;;;;;;5021340;28;20028;-74
2023/08/25 03:12:28;;;;;;;33.28;21.52;;;19.40;99.90;;;;;;5021585;28;20048;-73
2023/08/25 03:14:54;;;;;;;37.38;22.88;;;19.40;99.90;;;;;;5020031;28;20022;-76
2023/08/25 03:17:20;;;;;;;39.28;23.33;;;19.40;99.90;;;;;;5020313;28;20061;-77
2023/08/25 03:19:46;;;;;;;35.45;22.00;;;19.40;99.90;;;;;;5021157;28;20029;-80
2023/08/25 03:22:11;;;;;;;37.38;24.05;;;19.40;99.90;;;;;;5021232;28;20078;-76
2023/08/25 03:24:37;;;;;;;40.22;24.08;;;19.40;99.90;;;;;;5021112;28;20082;-76
2023/08/25 03:27:03;;;;;;;42.90;25.35;;;19.40;99.90;;;;;;5020211;28;20029;-74
2023/08/25 03:29:31;;;;;;;39.60;23.67;;;19.40;99.90;;;;;;5021213;28;20203;-76
2023/08/25 03:31:56;;;;;;;35.60;23.55;;;19.40;99.90;;;;;;5021453;28;20025;-76
2023/08/25 03:34:22;;;;;;;42.58;24.88;;;19.50;99.90;;;;;;5021059;28;20927;-78
2023/08/25 03:36:48;;;;;;;40.75;24.35;;;19.50;99.90;;;;;;5021123;28;20105;-74
2023/08/25 03:39:13;;;;;;;41.92;24.67;;;19.50;99.90;;;;;;5021569;28;20044;-77
2023/08/25 03:41:39;;;;;;;42.00;25.42;;;19.50;99.90;;;;;;5021289;28;20045;-75
2023/08/25 03:44:04;;;;;;;35.95;24.30;;;19.50;99.90;;;;;;5019870;28;20022;-73
2023/08/25 03:46:31;;;;;;;39.88;25.42;;;19.50;99.90;;;;;;5021443;28;20018;-75
2023/08/25 03:48:57;;;;;;;38.80;24.05;;;19.50;99.90;;;;;;5020382;28;20024;-75
2023/08/25 03:51:23;;;;;;;44.13;24.40;;;19.50;99.90;;;;;;5021356;28;20022;-76
2023/08/25 03:53:48;;;;;;;43.35;26.63;;;19.50;99.90;;;;;;5023222;28;20022;-73
2023/08/25 03:56:14;;;;;;;39.55;26.02;;;19.50;99.90;;;;;;5024828;28;20033;-74
2023/08/25 03:58:39;;;;;;;46.35;26.83;;;19.50;99.90;;;;;;5025021;28;20077;-74
2023/08/25 04:01:05;;;;;;;42.88;27.40;;;19.50;99.90;;;;;;5024713;28;20034;-73
2023/08/25 04:03:31;;;;;;;46.90;27.80;;;19.40;99.90;;;;;;5024436;28;20037;-75
2023/08/25 04:05:57;;;;;;;41.13;26.63;;;19.40;99.90;;;;;;5024806;28;20086;-76
2023/08/25 04:08:23;;;;;;;45.92;27.10;;;19.40;99.90;;;;;;5025186;28;20030;-79
2023/08/25 04:10:48;;;;;;;42.72;25.67;;;19.40;99.90;;;;;;5022607;28;20034;-76
2023/08/25 04:13:14;;;;;;;46.88;28.33;;;19.40;99.90;;;;;;5023324;28;20068;-75
2023/08/25 04:15:40;;;;;;;47.15;29.05;;;19.40;99.90;;;;;;5024683;28;20037;-75
2023/08/25 04:18:05;;;;;;;47.50;28.15;;;19.30;99.90;;;;;;5023687;28;20073;-75
2023/08/25 04:20:32;;;;;;;44.45;27.38;;;19.30;99.90;;;;;;5023128;28;20038;-76
2023/08/25 04:23:01;;;;;;;47.17;27.42;;;19.30;99.90;;;;;;5022620;28;20025;-76
2023/08/25 04:25:29;;;;;;;40.13;22.92;;;19.30;99.90;;;;;;5024309;28;20108;-76
2023/08/25 04:27:54;;;;;;;39.80;25.25;;;19.30;99.90;;;;;;5022938;28;20030;-76
2023/08/25 04:30:22;;;;;;;46.58;29.13;;;19.30;99.90;;;;;;5024378;28;20030;-76
2023/08/25 04:32:49;;;;;;;46.60;29.25;;;19.30;99.90;;;;;;5022733;28;20026;-76
2023/08/25 04:35:14;;;;;;;46.88;28.83;;;19.20;99.90;;;;;;5022370;28;20561;-74
2023/08/25 04:37:41;;;;;;;45.25;28.45;;;19.30;99.90;;;;;;5022861;28;20022;-74
2023/08/25 04:40:07;;;;;;;49.47;29.27;;;19.20;99.90;;;;;;5021101;28;20398;-75
2023/08/25 04:42:33;;;;;;;50.65;30.10;;;19.20;99.90;;;;;;5021694;28;20482;-76
2023/08/25 04:44:58;;;;;;;48.70;28.60;;;19.20;99.90;;;;;;5022758;28;20022;-77
2023/08/25 04:47:25;;;;;;;48.67;29.95;;;19.10;99.90;;;;;;5022344;28;20806;-76
2023/08/25 04:49:51;;;;;;;50.08;30.63;;;19.10;99.90;;;;;;5023571;28;20029;-76
2023/08/25 04:52:16;;;;;;;53.22;30.70;;;19.10;99.90;;;;;;5022943;28;20418;-75
2023/08/25 04:54:42;;;;;;;52.38;31.38;;;19.10;99.90;;;;;;5023695;28;20029;-75
2023/08/25 04:57:07;;;;;;;48.58;28.13;;;19.10;99.90;;;;;;5023458;28;20014;-76
2023/08/25 04:59:33;;;;;;;48.75;29.80;;;19.10;99.90;;;;;;5023370;28;20084;-76
2023/08/25 05:01:59;;;;;;;54.17;29.73;;;19.10;99.90;;;;;;5022941;28;20037;-77
2023/08/25 05:04:24;;;;;;;56.20;32.28;;;19.10;99.90;;;;;;5021704;28;20029;-77
2023/08/25 05:06:50;;;;;;;50.42;31.17;;;19.10;99.90;;;;;;5023555;28;20025;-77
2023/08/25 05:09:16;;;;;;;52.47;31.27;;;19.10;99.90;;;;;;5022260;28;20045;-76
2023/08/25 05:11:41;;;;;;;44.78;27.33;;;19.10;99.90;;;;;;5021785;28;20056;-77
2023/08/25 05:14:07;;;;;;;42.83;26.42;;;19.10;99.90;;;;;;5023465;28;20022;-77
2023/08/25 05:16:33;;;;;;;47.67;27.38;;;19.10;99.90;;;;;;5022249;28;20097;-77
2023/08/25 05:18:58;;;;;;;43.90;28.25;;;19.10;99.90;;;;;;5023357;28;20046;-78
2023/08/25 05:21:24;;;;;;;50.80;31.25;;;19.10;99.90;;;;;;5022004;28;20046;-77
2023/08/25 05:24:09;;;;;;;52.63;30.33;;;19.20;99.90;;;;;;5023796;28;20022;-76
2023/08/25 05:26:35;;;;;;;52.92;31.50;;;19.20;99.90;;;;;;5022600;28;20032;-77
2023/08/25 05:29:00;;;;;;;50.40;30.77;;;19.20;99.90;;;;;;5021784;28;20065;-75
2023/08/25 05:31:26;;;;;;;52.35;31.60;;;19.20;99.90;;;;;;5023473;28;20030;-75
2023/08/25 05:33:52;;;;;;;48.13;29.65;;;19.20;99.90;;;;;;5021562;28;20046;-75
2023/08/25 05:36:17;;;;;;;59.47;32.58;;;19.10;99.90;;;;;;5021713;28;20116;-75
2023/08/25 05:38:43;;;;;;;49.45;30.02;;;19.20;99.90;;;;;;5021998;28;20718;-75
2023/08/25 05:41:08;;;;;;;52.38;31.58;;;19.20;99.90;;;;;;5022562;28;20034;-74
2023/08/25 05:43:34;;;;;;;53.25;31.33;;;19.20;99.90;;;;;;5023282;28;20054;-75
2023/08/25 05:45:59;;;;;;;55.83;32.88;;;19.20;99.90;;;;;;5021669;28;20344;-75
2023/08/25 05:48:25;;;;;;;57.80;32.15;;;19.30;99.90;;;;;;5021932;28;20026;-75
2023/08/25 05:50:51;;;;;;;57.35;34.80;;;19.30;99.90;;;;;;5023203;28;20033;-75
2023/08/25 05:53:16;;;;;;;53.60;30.67;;;19.30;99.90;;;;;;5021926;28;20026;-74
2023/08/25 05:55:42;;;;;;;65.85;37.20;;;19.30;99.90;;;;;;5023021;28;20041;-74
2023/08/25 05:58:07;;;;;;;61.95;33.20;;;19.40;99.90;;;;;;5021212;28;20490;-74
2023/08/25 06:00:34;;;;;;;65.30;37.58;;;19.40;99.90;;;;;;5022387;28;20030;-74
2023/08/25 06:03:02;;;;;;;69.30;37.35;;;19.40;99.90;;;;;;5021571;28;20497;-76
2023/08/25 06:05:27;;;;;;;67.35;38.72;;;19.40;99.90;;;;;;5021758;28;20056;-73
2023/08/25 06:07:53;;;;;;;62.65;36.20;;;19.50;99.90;;;;;;5021176;28;20110;-74
2023/08/25 06:10:18;;;;;;;71.70;37.35;;;19.50;99.90;;;;;;5020870;28;20026;-74
2023/08/25 06:12:44;;;;;;;77.03;39.03;;;19.50;99.90;;;;;;5021591;28;20034;-74
2023/08/25 06:15:10;;;;;;;78.25;39.83;;;19.50;99.90;;;;;;5020967;28;21298;-75
2023/08/25 06:17:35;;;;;;;69.68;37.28;;;19.50;99.90;;;;;;5019134;28;20021;-76
2023/08/25 06:20:03;;;;;;;65.85;35.08;;;19.50;99.90;;;;;;5020490;28;20112;-75
2023/08/25 06:22:28;;;;;;;67.43;39.10;;;19.60;99.90;;;;;;5021688;28;20089;-76
2023/08/25 06:24:54;;;;;;;67.25;37.90;;;19.60;99.90;;;;;;5021069;28;20111;-76
2023/08/25 06:27:20;;;;;;;64.97;37.00;;;19.60;99.90;;;;;;5020073;28;20018;-76
2023/08/25 06:29:46;;;;;;;59.63;34.90;;;19.70;99.90;;;;;;5019964;28;20050;-75
2023/08/25 06:32:14;;;;;;;62.00;34.72;;;19.70;99.90;;;;;;5021747;28;20065;-75
2023/08/25 06:34:39;;;;;;;58.42;32.60;;;19.70;99.90;;;;;;5020162;28;20478;-76
2023/08/25 06:37:05;;;;;;;58.60;33.45;;;19.80;99.90;;;;;;5021649;28;20018;-76
2023/08/25 06:39:31;;;;;;;55.30;31.58;;;19.90;99.90;;;;;;5020704;28;20410;-76
2023/08/25 06:41:56;;;;;;;56.70;32.38;;;19.90;99.90;;;;;;5020113;28;20618;-74
2023/08/25 06:44:22;;;;;;;46.90;30.42;;;20.00;99.90;;;;;;5022140;28;20025;-75
2023/08/25 06:46:47;;;;;;;52.75;30.80;;;20.10;99.90;;;;;;5021135;28;20028;-76
2023/08/25 06:49:13;;;;;;;49.38;29.38;;;20.10;99.90;;;;;;5020203;28;20034;-74
2023/08/25 06:51:39;;;;;;;49.33;30.98;;;20.20;99.90;;;;;;5020139;28;20033;-76
2023/08/25 06:54:05;;;;;;;52.83;31.55;;;20.20;99.90;;;;;;5020537;28;20030;-76
2023/08/25 06:56:30;;;;;;;48.55;29.83;;;20.30;99.90;;;;;;5020142;28;20055;-76
2023/08/25 06:58:56;;;;;;;48.97;29.90;;;20.30;99.90;;;;;;5020065;28;20030;-77
2023/08/25 07:01:21;;;;;;;50.03;30.73;;;20.30;99.90;;;;;;5021610;28;20132;-77
2023/08/25 07:03:47;;;;;;;49.60;30.45;;;20.30;99.90;;;;;;5021832;28;20057;-75
2023/08/25 07:06:13;;;;;;;50.90;29.85;;;20.30;99.90;;;;;;5020385;28;20021;-74
2023/08/25 07:08:39;;;;;;;54.17;31.05;;;20.30;99.90;;;;;;5019935;28;20387;-75
2023/08/25 07:11:04;;;;;;;51.58;31.23;;;20.30;99.90;;;;;;5021210;28;20371;-78
2023/08/25 07:13:31;;;;;;;44.97;28.35;;;20.30;99.90;;;;;;5020405;28;20030;-76
2023/08/25 07:15:57;;;;;;;50.90;31.35;;;20.30;99.90;;;;;;5020800;28;20032;-77
2023/08/25 07:18:24;;;;;;;47.75;29.30;;;20.30;99.90;;;;;;5020232;28;20499;-75
2023/08/25 07:20:50;;;;;;;48.65;30.08;;;20.30;99.90;;;;;;5020098;28;20030;-77
2023/08/25 07:23:18;;;;;;;47.65;30.33;;;20.30;99.90;;;;;;5019837;28;20029;-74
2023/08/25 07:25:44;;;;;;;49.67;30.42;;;20.30;99.90;;;;;;5021123;28;20022;-76
2023/08/25 07:28:10;;;;;;;52.38;30.08;;;20.40;99.90;;;;;;5022576;28;20030;-75
2023/08/25 07:30:37;;;;;;;46.67;29.40;;;20.30;99.90;;;;;;5023586;28;20033;-76
2023/08/25 07:33:03;;;;;;;52.97;30.17;;;20.40;99.90;;;;;;5024112;28;20814;-75
2023/08/25 07:35:32;;;;;;;47.40;31.48;;;20.40;99.90;;;;;;5023655;28;20014;-77
2023/08/25 07:37:58;;;;;;;50.72;31.20;;;20.40;99.90;;;;;;5024618;28;20034;-76
2023/08/25 07:40:23;;;;;;;49.53;30.95;;;20.50;99.90;;;;;;5023595;28;20025;-77
2023/08/25 07:42:49;;;;;;;51.40;31.23;;;20.60;99.90;;;;;;5025440;28;20018;-76
2023/08/25 07:45:15;;;;;;;49.78;30.08;;;20.60;99.90;;;;;;5023475;28;20057;-76
2023/08/25 07:47:41;;;;;;;46.35;29.02;;;20.70;99.90;;;;;;5023036;28;20057;-75
2023/08/25 07:50:07;;;;;;;48.28;28.65;;;20.70;99.90;;;;;;5024165;28;20034;-75
2023/08/25 07:52:32;;;;;;;48.20;27.90;;;20.80;99.90;;;;;;5022491;28;20025;-75
2023/08/25 07:54:58;;;;;;;50.40;28.48;;;20.80;99.90;;;;;;5023318;28;20659;-77
2023/08/25 07:57:23;;;;;;;47.15;27.20;;;20.90;99.90;;;;;;5023698;28;20025;-78
2023/08/25 07:59:49;;;;;;;42.13;27.30;;;20.90;99.90;;;;;;5023247;28;20045;-74
2023/08/25 08:02:15;;;;;;;39.85;26.10;;;20.90;99.90;;;;;;5023569;28;20046;-75
2023/08/25 08:04:40;;;;;;;44.53;27.75;;;20.90;99.90;;;;;;5023983;28;20037;-77
2023/08/25 08:07:06;;;;;;;38.15;24.75;;;20.90;99.90;;;;;;5023148;28;20025;-77
2023/08/25 08:09:32;;;;;;;48.38;27.00;;;20.90;99.90;;;;;;5022872;28;20466;-77
2023/08/25 08:11:58;;;;;;;47.20;28.67;;;21.00;99.90;;;;;;5024666;28;20041;-75
2023/08/25 08:14:24;;;;;;;38.55;24.65;;;21.00;99.90;;;;;;5024847;28;20165;-78
2023/08/25 08:16:51;;;;;;;46.85;28.60;;;21.00;99.90;;;;;;5024979;28;20034;-77
2023/08/25 08:19:16;;;;;;;47.70;28.42;;;21.10;99.90;;;;;;5024116;28;20068;-79
2023/08/25 08:21:42;;;;;;;51.50;30.02;;;21.10;99.90;;;;;;5022908;28;20434;-76
2023/08/25 08:24:09;;;;;;;45.85;29.00;;;21.10;99.90;;;;;;5021981;28;20106;-76
2023/08/25 08:26:36;;;;;;;57.30;29.02;;;21.10;99.90;;;;;;5023748;28;20029;-81
2023/08/25 08:29:02;;;;;;;47.95;29.25;;;21.20;99.90;;;;;;5022034;28;20022;-77
2023/08/25 08:31:29;;;;;;;44.40;28.30;;;21.20;99.90;;;;;;5022896;28;20026;-79
2023/08/25 08:33:54;;;;;;;47.80;29.70;;;21.20;99.90;;;;;;5023274;28;20042;-78
2023/08/25 08:36:20;;;;;;;46.40;28.02;;;21.30;99.90;;;;;;5023837;28;20032;-79
2023/08/25 08:38:46;;;;;;;48.65;29.55;;;21.30;99.90;;;;;;5022844;28;20026;-78
2023/08/25 08:41:15;;;;;;;39.25;24.10;;;21.30;99.90;;;;;;5022212;28;20038;-75
2023/08/25 08:43:43;;;;;;;50.08;29.10;;;21.30;99.90;;;;;;5024145;28;20041;-78
2023/08/25 08:46:13;;;;;;;49.83;29.23;;;21.30;99.90;;;;;;5022914;28;20017;-76
2023/08/25 08:48:40;;;;;;;43.35;27.30;;;21.30;99.90;;;;;;5022005;28;20037;-78
2023/08/25 08:51:06;;;;;;;48.00;28.67;;;21.30;99.90;;;;;;5023222;28;20033;-75
2023/08/25 08:53:32;;;;;;;46.65;28.63;;;21.30;99.90;;;;;;5022887;28;20025;-76
2023/08/25 08:55:59;;;;;;;45.03;28.05;;;21.20;99.90;;;;;;5021940;28;20026;-80
2023/08/25 08:58:24;;;;;;;49.08;29.05;;;21.20;99.90;;;;;;5022163;28;20033;-78
2023/08/25 09:00:52;;;;;;;48.33;29.05;;;21.10;99.90;;;;;;5021683;28;20125;-80
2023/08/25 09:03:20;;;;;;;47.28;27.65;;;21.10;99.90;;;;;;5023732;28;20025;-77
2023/08/25 09:05:47;;;;;;;49.45;27.30;;;21.10;99.90;;;;;;5022414;28;20116;-80
2023/08/25 09:08:13;;;;;;;49.22;28.02;;;21.10;99.90;;;;;;5021759;28;20093;-78
2023/08/25 09:10:39;;;;;;;47.13;29.02;;;21.10;99.90;;;;;;5023621;28;20026;-79
2023/08/25 09:13:05;;;;;;;43.47;27.50;;;21.10;99.90;;;;;;5023653;28;20040;-77
2023/08/25 09:15:33;;;;;;;48.67;28.50;;;21.20;99.90;;;;;;5021639;28;20030;-79
2023/08/25 09:18:08;;;;;;;50.78;29.40;;;21.30;99.90;;;;;;5023754;28;20029;-80
2023/08/25 09:20:38;;;;;;;52.08;28.88;;;21.40;99.90;;;;;;5023372;28;20037;-79
2023/08/25 09:23:04;;;;;;;48.22;28.48;;;21.50;99.90;;;;;;5021910;28;20029;-79
2023/08/25 09:25:32;;;;;;;45.83;27.77;;;21.50;99.90;;;;;;5021372;28;20053;-78
2023/08/25 09:27:59;;;;;;;47.58;29.42;;;21.60;99.90;;;;;;5020497;28;20056;-78
2023/08/25 09:30:41;;;;;;;46.95;29.58;;;21.60;99.90;;;;;;5021105;28;20026;-78
2023/08/25 09:33:13;;;;;;;51.90;30.85;;;21.60;99.90;;;;;;5021820;28;21367;-76
2023/08/25 09:35:40;;;;;;;53.47;30.95;;;21.60;99.90;;;;;;5022806;28;20033;-79
2023/08/25 09:38:06;;;;;;;48.92;30.20;;;21.50;99.90;;;;;;5021377;28;20079;-77
2023/08/25 09:40:32;;;;;;;48.25;30.92;;;21.50;99.90;;;;;;5021861;28;20026;-73
2023/08/25 09:42:59;;;;;;;51.53;29.13;;;21.40;99.90;;;;;;5022645;28;20034;-71
2023/08/25 09:45:30;;;;;;;50.33;29.42;;;21.30;99.90;;;;;;5022178;28;20030;-78
2023/08/25 09:48:12;;;;;;;51.58;30.58;;;21.30;99.90;;;;;;5022052;28;20049;-81
2023/08/25 09:50:42;;;;;;;51.63;30.98;;;21.20;99.90;;;;;;5019515;28;20038;-73
2023/08/25 09:53:10;;;;;;;50.35;30.20;;;21.20;99.90;;;;;;5020484;28;20030;-78
2023/08/25 09:55:37;;;;;;;50.53;30.13;;;21.20;99.90;;;;;;5020140;28;20030;-73
2023/08/25 09:58:07;;;;;;;58.60;30.75;;;21.20;99.90;;;;;;5022457;28;20178;-76
2023/08/25 10:00:35;;;;;;;48.78;30.13;;;21.20;99.90;;;;;;5018940;28;20116;-76
2023/08/25 10:03:03;;;;;;;55.58;31.23;;;21.20;99.90;;;;;;5021321;28;20030;-75
2023/08/25 10:05:32;;;;;;;63.38;34.28;;;21.20;99.90;;;;;;5020628;28;20121;-77
2023/08/25 10:07:59;;;;;;;63.42;33.45;;;21.20;99.90;;;;;;5020847;28;20041;-73
2023/08/25 10:10:26;;;;;;;52.42;32.33;;;21.20;99.90;;;;;;5020361;28;20022;-81
2023/08/25 10:12:55;;;;;;;56.28;32.78;;;21.20;99.90;;;;;;5022568;28;20049;-72
2023/08/25 10:15:22;;;;;;;56.08;33.55;;;21.20;99.90;;;;;;5018510;28;20026;-77
2023/08/25 10:17:49;;;;;;;57.00;32.83;;;21.20;99.90;;;;;;5020868;28;20163;-79
2023/08/25 10:20:15;;;;;;;57.05;33.05;;;21.20;99.90;;;;;;5020298;28;20025;-73
2023/08/25 10:22:45;;;;;;;63.92;34.03;;;21.20;99.90;;;;;;5022082;28;20037;-79
2023/08/25 10:25:13;;;;;;;58.92;34.22;;;21.20;99.90;;;;;;5021620;28;20033;-79
2023/08/25 10:27:39;;;;;;;59.70;32.70;;;21.20;99.90;;;;;;5022192;28;20093;-78
2023/08/25 10:30:06;;;;;;;52.50;30.85;;;21.30;99.90;;;;;;5020749;28;20363;-79
2023/08/25 10:32:53;;;;;;;52.63;30.77;;;21.30;99.90;;;;;;5020653;28;20026;-78
2023/08/25 10:35:39;;;;;;;60.40;30.10;;;21.30;99.90;;;;;;5021401;28;20046;-75
2023/08/25 10:38:18;;;;;;;56.65;29.77;;;21.30;99.90;;;;;;5021244;28;20497;-78
2023/08/25 10:40:53;;;;;;;48.72;29.27;;;21.40;99.90;;;;;;5021281;28;20033;-78
2023/08/25 10:43:29;;;;;;;53.17;30.75;;;21.40;99.90;;;;;;5036848;28;20037;-78
2023/08/25 10:45:55;;;;;;;43.53;25.45;;;21.30;99.90;;;;;;5020194;28;20037;-79
2023/08/25 10:48:24;;;;;;;44.20;26.45;;;21.30;99.90;;;;;;5020543;28;20022;-76
2023/08/25 10:51:04;;;;;;;47.42;25.48;;;21.30;99.90;;;;;;5021510;28;20022;-77
2023/08/25 10:53:44;;;;;;;44.08;25.65;;;21.30;99.90;;;;;;5021067;28;20101;-76
2023/08/25 10:56:21;;;;;;;38.72;23.77;;;21.30;99.90;;;;;;5020371;28;20033;-79
2023/08/25 10:59:11;;;;;;;43.60;25.75;;;21.20;99.90;;;;;;5020259;28;20034;-78
2023/08/25 11:01:37;;;;;;;41.50;25.20;;;21.20;99.90;;;;;;5021089;28;20042;-78
2023/08/25 11:04:19;;;;;;;36.20;20.27;;;21.10;99.90;;;;;;5020834;28;20025;-77
2023/08/25 11:06:47;;;;;;;36.10;21.27;;;21.10;99.90;;;;;;5021129;28;20097;-76
2023/08/25 11:09:18;;;;;;;41.53;25.45;;;21.10;99.90;;;;;;5020065;28;20014;-76
2023/08/25 11:11:45;;;;;;;34.67;22.48;;;21.10;99.90;;;;;;5021392;28;20113;-77
2023/08/25 11:14:14;;;;;;;38.20;24.88;;;21.00;99.90;;;;;;5020094;28;20044;-76
2023/08/25 11:16:41;;;;;;;37.58;21.85;;;21.00;99.90;;;;;;5021649;28;20057;-76
2023/08/25 11:19:10;;;;;;;42.10;26.30;;;21.00;99.90;;;;;;5019934;28;20109;-77
2023/08/25 11:21:36;;;;;;;44.63;26.23;;;21.00;99.90;;;;;;5019606;28;20057;-78
2023/08/25 11:24:02;;;;;;;38.10;25.23;;;21.00;99.90;;;;;;5021545;28;20030;-77
2023/08/25 11:26:27;;;;;;;42.67;24.35;;;21.00;99.90;;;;;;5020002;28;20030;-78
2023/08/25 11:28:54;;;;;;;43.17;27.90;;;21.00;99.90;;;;;;5019839;28;20037;-77
2023/08/25 11:31:21;;;;;;;41.03;25.75;;;20.90;99.90;;;;;;5020998;28;20038;-79
2023/08/25 11:33:48;;;;;;;42.45;27.05;;;20.90;99.90;;;;;;5019483;28;20049;-79
2023/08/25 11:36:15;;;;;;;42.88;26.80;;;20.90;99.90;;;;;;5019623;28;20026;-79
2023/08/25 11:38:45;;;;;;;44.75;26.27;;;20.90;99.90;;;;;;5021527;28;20041;-78
2023/08/25 11:41:11;;;;;;;48.20;26.52;;;20.90;99.90;;;;;;5019666;28;20044;-77
2023/08/25 11:43:37;;;;;;;45.90;26.02;;;20.90;99.90;;;;;;5021350;28;20089;-77
2023/08/25 11:46:05;;;;;;;46.35;28.05;;;20.90;99.90;;;;;;5020101;28;20022;-78
2023/08/25 11:48:33;;;;;;;35.10;20.98;;;20.90;99.90;;;;;;5018956;28;20064;-77
2023/08/25 11:50:59;;;;;;;39.75;24.63;;;20.80;99.90;;;;;;5019069;28;20022;-77
2023/08/25 11:53:24;;;;;;;35.85;20.75;;;20.80;99.90;;;;;;5019739;28;20540;-78
2023/08/25 11:56:04;;;;;;;42.05;22.15;;;20.80;99.90;;;;;;5019827;28;20025;-77
2023/08/25 11:58:34;;;;;;;36.53;21.80;;;20.90;99.90;;;;;;5020487;28;20034;-76
2023/08/25 12:01:08;;;;;;;39.78;22.30;;;20.90;99.90;;;;;;5020668;28;20033;-79
2023/08/25 12:03:37;;;;;;;37.60;21.65;;;20.90;99.90;;;;;;5020851;28;20026;-77
2023/08/25 12:06:07;;;;;;;34.85;19.60;;;20.90;99.90;;;;;;5019527;28;20026;-76
2023/08/25 12:08:34;;;;;;;42.72;24.42;;;20.90;99.90;;;;;;5019500;28;20028;-77
2023/08/25 12:11:00;;;;;;;41.05;24.90;;;20.90;99.90;;;;;;5018904;28;20026;-77
2023/08/25 12:13:31;;;;;;;34.67;19.98;;;20.90;99.90;;;;;;5021060;28;20026;-76
2023/08/25 12:15:57;;;;;;;31.27;19.63;;;21.00;99.90;;;;;;5022993;28;20026;-78
2023/08/25 12:18:30;;;;;;;53.03;29.13;;;21.00;99.90;;;;;;5022774;28;20021;-76
2023/08/25 12:20:55;;;;;;;41.88;25.77;;;21.00;99.90;;;;;;5024274;28;20037;-77
2023/08/25 12:23:21;;;;;;;37.78;22.20;;;21.00;99.90;;;;;;5023183;28;20032;-78
2023/08/25 12:25:47;;;;;;;46.33;25.13;;;21.00;99.90;;;;;;5023041;28;20029;-79
2023/08/25 12:28:12;;;;;;;45.35;26.13;;;21.00;99.90;;;;;;5023076;28;20065;-76